FDMS/MTS METAR and TAF weather

Enter ICAO airport designator
Station Type Date Time Source
FDMS METAR 2019/12/13 08:00 UTC NOAA

FDMS 130800Z 12003KT 9999 BKN035 21/16 Q1021 NOSIG


Station Type Date Time Source
FDMS Decoded METAR 2019/12/13 08:00 UTC NOAA

Manzini / Matsapa Airport, Swaziland (FDMS) 26-32S 031-18E
Dec 13, 2019 - 03:00 AM EST / 2019.12.13 0800 UTC
Wind: from the ESE (120 degrees) at 3 MPH (3 KT):0
Visibility: greater than 7 mile(s):0
Sky conditions: mostly cloudy
Temperature: 69 F (21 C)
Dew Point: 60 F (16 C)
Relative Humidity: 73%
Pressure (altimeter): 30.15 in. Hg (1021 hPa)
ob: FDMS 130800Z 12003KT 9999 BKN035 21/16 Q1021 NOSIG
cycle: 8

Station Type Date Time Source
FDMS TAF 2019/10/02 12:36 UTC NOAA

TAF FDMS 021000Z 0212/0318 08007KT 9999 SCT035

Example: see airport list